sensor_id;sensor_type;location;lat;lon;timestamp;temperature;humidity
32428;DHT22;18882;50.952;4.366;2022-09-09T00:00:15;15.70;99.90
32428;DHT22;18882;50.952;4.366;2022-09-09T00:03:08;15.70;99.90
32428;DHT22;18882;50.952;4.366;2022-09-09T00:08:22;15.70;99.90
32428;DHT22;18882;50.952;4.366;2022-09-09T00:11:00;15.70;99.90
32428;DHT22;18882;50.952;4.366;2022-09-09T00:13:37;15.70;99.90
32428;DHT22;18882;50.952;4.366;2022-09-09T00:16:17;15.90;99.90
32428;DHT22;18882;50.952;4.366;2022-09-09T00:24:41;16.00;99.90
32428;DHT22;18882;50.952;4.366;2022-09-09T00:32:39;16.00;99.90
32428;DHT22;18882;50.952;4.366;2022-09-09T00:37:48;15.90;99.90
32428;DHT22;18882;50.952;4.366;2022-09-09T00:40:32;15.80;99.90
32428;DHT22;18882;50.952;4.366;2022-09-09T00:57:00;15.90;99.90
32428;DHT22;18882;50.952;4.366;2022-09-09T01:02:16;15.90;99.90
32428;DHT22;18882;50.952;4.366;2022-09-09T01:04:43;15.90;99.90
32428;DHT22;18882;50.952;4.366;2022-09-09T01:07:27;15.80;99.90
32428;DHT22;18882;50.952;4.366;2022-09-09T01:10:01;15.80;99.90
32428;DHT22;18882;50.952;4.366;2022-09-09T01:12:38;15.80;99.90
32428;DHT22;18882;50.952;4.366;2022-09-09T01:15:13;15.70;99.90
32428;DHT22;18882;50.952;4.366;2022-09-09T01:20:25;15.80;99.90
32428;DHT22;18882;50.952;4.366;2022-09-09T01:26:14;15.80;99.90
32428;DHT22;18882;50.952;4.366;2022-09-09T01:28:45;15.90;99.90
32428;DHT22;18882;50.952;4.366;2022-09-09T01:31:15;16.00;99.90
32428;DHT22;18882;50.952;4.366;2022-09-09T01:33:42;16.00;99.90
32428;DHT22;18882;50.952;4.366;2022-09-09T01:36:11;16.00;99.90
32428;DHT22;18882;50.952;4.366;2022-09-09T01:38:38;16.00;99.90
32428;DHT22;18882;50.952;4.366;2022-09-09T01:41:04;15.90;99.90
32428;DHT22;18882;50.952;4.366;2022-09-09T01:43:30;15.90;99.90
32428;DHT22;18882;50.952;4.366;2022-09-09T01:45:59;15.90;99.90
32428;DHT22;18882;50.952;4.366;2022-09-09T01:48:26;15.90;99.90
32428;DHT22;18882;50.952;4.366;2022-09-09T01:50:52;16.00;99.90
32428;DHT22;18882;50.952;4.366;2022-09-09T01:53:19;16.00;99.90
32428;DHT22;18882;50.952;4.366;2022-09-09T02:01:36;15.90;99.90
32428;DHT22;18882;50.952;4.366;2022-09-09T02:06:55;15.80;99.90
32428;DHT22;18882;50.952;4.366;2022-09-09T02:09:24;15.80;99.90
32428;DHT22;18882;50.952;4.366;2022-09-09T02:11:53;15.80;99.90
32428;DHT22;18882;50.952;4.366;2022-09-09T02:14:27;15.80;99.90
32428;DHT22;18882;50.952;4.366;2022-09-09T02:17:11;15.70;99.90
32428;DHT22;18882;50.952;4.366;2022-09-09T02:19:58;15.80;99.90
32428;DHT22;18882;50.952;4.366;2022-09-09T02:22:26;15.80;99.90
32428;DHT22;18882;50.952;4.366;2022-09-09T02:24:56;15.70;99.90
32428;DHT22;18882;50.952;4.366;2022-09-09T02:27:23;15.70;99.90
32428;DHT22;18882;50.952;4.366;2022-09-09T02:29:50;15.80;99.90
32428;DHT22;18882;50.952;4.366;2022-09-09T02:32:19;15.90;99.90
32428;DHT22;18882;50.952;4.366;2022-09-09T02:34:58;15.90;99.90
32428;DHT22;18882;50.952;4.366;2022-09-09T02:37:28;15.90;99.90
32428;DHT22;18882;50.952;4.366;2022-09-09T02:39:55;15.80;99.90
32428;DHT22;18882;50.952;4.366;2022-09-09T02:42:21;15.90;99.90
32428;DHT22;18882;50.952;4.366;2022-09-09T02:44:47;15.90;99.90
32428;DHT22;18882;50.952;4.366;2022-09-09T02:50:27;16.00;99.90
32428;DHT22;18882;50.952;4.366;2022-09-09T02:53:07;16.00;99.90
32428;DHT22;18882;50.952;4.366;2022-09-09T02:55:45;16.10;99.90
32428;DHT22;18882;50.952;4.366;2022-09-09T02:58:14;16.10;99.90
32428;DHT22;18882;50.952;4.366;2022-09-09T03:00:43;16.10;99.90
32428;DHT22;18882;50.952;4.366;2022-09-09T03:03:09;16.00;99.90
32428;DHT22;18882;50.952;4.366;2022-09-09T03:05:36;15.90;99.90
32428;DHT22;18882;50.952;4.366;2022-09-09T03:08:03;15.90;99.90
32428;DHT22;18882;50.952;4.366;2022-09-09T03:10:29;15.90;99.90
32428;DHT22;18882;50.952;4.366;2022-09-09T03:12:54;16.00;99.90
32428;DHT22;18882;50.952;4.366;2022-09-09T03:15:21;16.00;99.90
32428;DHT22;18882;50.952;4.366;2022-09-09T03:17:46;16.00;99.90
32428;DHT22;18882;50.952;4.366;2022-09-09T03:20:12;16.00;99.90
32428;DHT22;18882;50.952;4.366;2022-09-09T03:22:38;16.00;99.90
32428;DHT22;18882;50.952;4.366;2022-09-09T03:25:04;16.20;99.90
32428;DHT22;18882;50.952;4.366;2022-09-09T03:27:31;16.00;99.90
32428;DHT22;18882;50.952;4.366;2022-09-09T03:29:57;16.00;99.90
32428;DHT22;18882;50.952;4.366;2022-09-09T03:32:23;15.90;99.90
32428;DHT22;18882;50.952;4.366;2022-09-09T03:34:51;15.90;99.90
32428;DHT22;18882;50.952;4.366;2022-09-09T03:37:18;16.00;99.90
32428;DHT22;18882;50.952;4.366;2022-09-09T03:39:44;16.00;99.90
32428;DHT22;18882;50.952;4.366;2022-09-09T03:42:12;16.00;99.90
32428;DHT22;18882;50.952;4.366;2022-09-09T03:44:39;16.10;99.90
32428;DHT22;18882;50.952;4.366;2022-09-09T03:47:06;16.20;99.90
32428;DHT22;18882;50.952;4.366;2022-09-09T03:49:32;16.00;99.90
32428;DHT22;18882;50.952;4.366;2022-09-09T03:51:57;16.00;99.90
32428;DHT22;18882;50.952;4.366;2022-09-09T03:54:25;16.00;99.90
32428;DHT22;18882;50.952;4.366;2022-09-09T03:56:51;15.90;99.90
32428;DHT22;18882;50.952;4.366;2022-09-09T03:59:16;15.90;99.90
32428;DHT22;18882;50.952;4.366;2022-09-09T04:01:42;15.90;99.90
32428;DHT22;18882;50.952;4.366;2022-09-09T04:04:08;15.90;99.90
32428;DHT22;18882;50.952;4.366;2022-09-09T04:06:35;15.90;99.90
32428;DHT22;18882;50.952;4.366;2022-09-09T04:09:00;15.90;99.90
32428;DHT22;18882;50.952;4.366;2022-09-09T04:11:28;16.00;99.90
32428;DHT22;18882;50.952;4.366;2022-09-09T04:13:53;16.10;99.90
32428;DHT22;18882;50.952;4.366;2022-09-09T04:16:19;16.10;99.90
32428;DHT22;18882;50.952;4.366;2022-09-09T04:18:45;16.00;99.90
32428;DHT22;18882;50.952;4.366;2022-09-09T04:21:11;16.00;99.90
32428;DHT22;18882;50.952;4.366;2022-09-09T04:23:38;16.10;99.90
32428;DHT22;18882;50.952;4.366;2022-09-09T04:26:04;16.10;99.90
32428;DHT22;18882;50.952;4.366;2022-09-09T04:28:33;15.90;99.90
32428;DHT22;18882;50.952;4.366;2022-09-09T04:31:20;15.90;99.90
32428;DHT22;18882;50.952;4.366;2022-09-09T04:33:48;15.90;99.90
32428;DHT22;18882;50.952;4.366;2022-09-09T04:36:15;15.90;99.90
32428;DHT22;18882;50.952;4.366;2022-09-09T04:38:40;15.80;99.90
32428;DHT22;18882;50.952;4.366;2022-09-09T04:41:06;15.80;99.90
32428;DHT22;18882;50.952;4.366;2022-09-09T04:43:33;15.80;99.90
32428;DHT22;18882;50.952;4.366;2022-09-09T04:45:58;15.90;99.90
32428;DHT22;18882;50.952;4.366;2022-09-09T04:48:24;16.00;99.90
32428;DHT22;18882;50.952;4.366;2022-09-09T04:51:02;15.90;99.90
32428;DHT22;18882;50.952;4.366;2022-09-09T04:53:29;15.80;99.90
32428;DHT22;18882;50.952;4.366;2022-09-09T04:58:28;15.70;99.90
32428;DHT22;18882;50.952;4.366;2022-09-09T05:00:53;15.70;99.90
32428;DHT22;18882;50.952;4.366;2022-09-09T05:03:19;15.70;99.90
32428;DHT22;18882;50.952;4.366;2022-09-09T05:05:44;15.80;99.90
32428;DHT22;18882;50.952;4.366;2022-09-09T05:08:10;15.90;99.90
32428;DHT22;18882;50.952;4.366;2022-09-09T05:10:38;15.90;99.90
32428;DHT22;18882;50.952;4.366;2022-09-09T05:13:04;15.90;99.90
32428;DHT22;18882;50.952;4.366;2022-09-09T05:15:30;15.90;99.90
32428;DHT22;18882;50.952;4.366;2022-09-09T05:17:59;15.90;99.90
32428;DHT22;18882;50.952;4.366;2022-09-09T05:20:26;15.90;99.90
32428;DHT22;18882;50.952;4.366;2022-09-09T05:22:53;15.90;99.90
32428;DHT22;18882;50.952;4.366;2022-09-09T05:25:19;16.00;99.90
32428;DHT22;18882;50.952;4.366;2022-09-09T05:27:45;16.00;99.90
32428;DHT22;18882;50.952;4.366;2022-09-09T05:30:11;16.00;99.90
32428;DHT22;18882;50.952;4.366;2022-09-09T05:32:37;15.90;99.90
32428;DHT22;18882;50.952;4.366;2022-09-09T05:35:03;15.90;99.90
32428;DHT22;18882;50.952;4.366;2022-09-09T05:37:30;16.00;99.90
32428;DHT22;18882;50.952;4.366;2022-09-09T05:39:56;16.00;99.90
32428;DHT22;18882;50.952;4.366;2022-09-09T05:42:23;16.10;99.90
32428;DHT22;18882;50.952;4.366;2022-09-09T05:44:49;16.10;99.90
32428;DHT22;18882;50.952;4.366;2022-09-09T05:47:16;16.20;99.90
32428;DHT22;18882;50.952;4.366;2022-09-09T05:49:42;16.20;99.90
32428;DHT22;18882;50.952;4.366;2022-09-09T05:52:08;16.20;99.90
32428;DHT22;18882;50.952;4.366;2022-09-09T05:54:35;16.10;99.90
32428;DHT22;18882;50.952;4.366;2022-09-09T05:57:02;16.10;99.90
32428;DHT22;18882;50.952;4.366;2022-09-09T05:59:27;16.20;99.90
32428;DHT22;18882;50.952;4.366;2022-09-09T06:01:53;16.10;99.90
32428;DHT22;18882;50.952;4.366;2022-09-09T06:04:19;16.10;99.90
32428;DHT22;18882;50.952;4.366;2022-09-09T06:06:49;16.20;99.90
32428;DHT22;18882;50.952;4.366;2022-09-09T06:09:15;16.10;99.90
32428;DHT22;18882;50.952;4.366;2022-09-09T06:11:41;16.10;99.90
32428;DHT22;18882;50.952;4.366;2022-09-09T06:14:07;16.20;99.90
32428;DHT22;18882;50.952;4.366;2022-09-09T06:16:33;16.20;99.90
32428;DHT22;18882;50.952;4.366;2022-09-09T06:19:00;16.20;99.90
32428;DHT22;18882;50.952;4.366;2022-09-09T06:21:30;16.30;99.90
32428;DHT22;18882;50.952;4.366;2022-09-09T06:23:58;16.40;99.90
32428;DHT22;18882;50.952;4.366;2022-09-09T06:26:29;16.40;99.90
32428;DHT22;18882;50.952;4.366;2022-09-09T06:28:56;16.40;99.90
32428;DHT22;18882;50.952;4.366;2022-09-09T06:31:25;16.50;99.90
32428;DHT22;18882;50.952;4.366;2022-09-09T06:33:53;16.50;99.90
32428;DHT22;18882;50.952;4.366;2022-09-09T06:36:40;16.60;99.90
32428;DHT22;18882;50.952;4.366;2022-09-09T06:39:06;16.60;99.90
32428;DHT22;18882;50.952;4.366;2022-09-09T06:41:33;16.70;99.90
32428;DHT22;18882;50.952;4.366;2022-09-09T06:43:59;16.70;99.90
32428;DHT22;18882;50.952;4.366;2022-09-09T06:46:28;16.70;99.90
32428;DHT22;18882;50.952;4.366;2022-09-09T06:48:56;16.70;99.90
32428;DHT22;18882;50.952;4.366;2022-09-09T06:51:23;16.70;99.90
32428;DHT22;18882;50.952;4.366;2022-09-09T06:53:52;16.80;99.90
32428;DHT22;18882;50.952;4.366;2022-09-09T06:56:38;16.90;99.90
32428;DHT22;18882;50.952;4.366;2022-09-09T06:59:07;16.90;99.90
32428;DHT22;18882;50.952;4.366;2022-09-09T07:01:42;16.90;99.90
32428;DHT22;18882;50.952;4.366;2022-09-09T07:04:09;16.90;99.90
32428;DHT22;18882;50.952;4.366;2022-09-09T07:06:38;17.00;99.90
32428;DHT22;18882;50.952;4.366;2022-09-09T07:09:09;17.10;99.90
32428;DHT22;18882;50.952;4.366;2022-09-09T07:11:41;17.20;99.90
32428;DHT22;18882;50.952;4.366;2022-09-09T07:14:07;17.30;99.90
32428;DHT22;18882;50.952;4.366;2022-09-09T07:16:34;17.40;99.90
32428;DHT22;18882;50.952;4.366;2022-09-09T07:19:03;17.40;99.90
32428;DHT22;18882;50.952;4.366;2022-09-09T07:21:30;17.40;99.90
32428;DHT22;18882;50.952;4.366;2022-09-09T07:23:57;17.30;99.90
32428;DHT22;18882;50.952;4.366;2022-09-09T07:26:26;17.30;99.90
32428;DHT22;18882;50.952;4.366;2022-09-09T07:28:52;17.20;99.90
32428;DHT22;18882;50.952;4.366;2022-09-09T07:31:24;17.20;99.90
32428;DHT22;18882;50.952;4.366;2022-09-09T07:33:51;17.30;99.90
32428;DHT22;18882;50.952;4.366;2022-09-09T07:36:20;17.30;99.90
32428;DHT22;18882;50.952;4.366;2022-09-09T07:38:55;17.30;99.90
32428;DHT22;18882;50.952;4.366;2022-09-09T07:41:45;17.30;99.90
32428;DHT22;18882;50.952;4.366;2022-09-09T07:44:13;17.40;99.90
32428;DHT22;18882;50.952;4.366;2022-09-09T07:46:40;17.30;99.90
32428;DHT22;18882;50.952;4.366;2022-09-09T07:49:06;17.10;99.90
32428;DHT22;18882;50.952;4.366;2022-09-09T07:51:35;17.10;99.90
32428;DHT22;18882;50.952;4.366;2022-09-09T07:54:03;17.10;99.90
32428;DHT22;18882;50.952;4.366;2022-09-09T07:56:30;17.00;99.90
32428;DHT22;18882;50.952;4.366;2022-09-09T07:58:58;17.10;99.90
32428;DHT22;18882;50.952;4.366;2022-09-09T08:01:29;17.20;99.90
32428;DHT22;18882;50.952;4.366;2022-09-09T08:04:02;17.30;99.90
32428;DHT22;18882;50.952;4.366;2022-09-09T08:06:42;17.40;99.90
32428;DHT22;18882;50.952;4.366;2022-09-09T08:09:09;17.60;99.90
32428;DHT22;18882;50.952;4.366;2022-09-09T08:11:35;17.70;99.90
32428;DHT22;18882;50.952;4.366;2022-09-09T08:14:02;17.60;99.90
32428;DHT22;18882;50.952;4.366;2022-09-09T08:16:31;17.60;99.90
32428;DHT22;18882;50.952;4.366;2022-09-09T08:18:57;17.60;99.90
32428;DHT22;18882;50.952;4.366;2022-09-09T08:21:33;17.70;99.90
32428;DHT22;18882;50.952;4.366;2022-09-09T08:24:00;17.70;99.90
32428;DHT22;18882;50.952;4.366;2022-09-09T08:26:28;17.80;99.90
32428;DHT22;18882;50.952;4.366;2022-09-09T08:28:55;17.60;99.90
32428;DHT22;18882;50.952;4.366;2022-09-09T08:31:36;17.60;99.90
32428;DHT22;18882;50.952;4.366;2022-09-09T08:34:03;17.60;99.90
32428;DHT22;18882;50.952;4.366;2022-09-09T08:36:32;17.70;99.90
32428;DHT22;18882;50.952;4.366;2022-09-09T08:39:01;17.70;99.90
32428;DHT22;18882;50.952;4.366;2022-09-09T08:44:10;17.80;99.90
32428;DHT22;18882;50.952;4.366;2022-09-09T08:51:40;17.80;99.90
32428;DHT22;18882;50.952;4.366;2022-09-09T08:54:08;17.70;99.90
32428;DHT22;18882;50.952;4.366;2022-09-09T08:56:35;17.60;99.90
32428;DHT22;18882;50.952;4.366;2022-09-09T08:59:02;17.60;99.90
32428;DHT22;18882;50.952;4.366;2022-09-09T09:01:44;17.60;99.90
32428;DHT22;18882;50.952;4.366;2022-09-09T09:04:21;17.60;99.90
32428;DHT22;18882;50.952;4.366;2022-09-09T09:09:34;17.70;99.90
32428;DHT22;18882;50.952;4.366;2022-09-09T09:12:21;17.70;99.90
32428;DHT22;18882;50.952;4.366;2022-09-09T09:14:48;17.70;99.90
32428;DHT22;18882;50.952;4.366;2022-09-09T09:17:23;17.70;99.90
32428;DHT22;18882;50.952;4.366;2022-09-09T09:19:49;17.70;99.90
32428;DHT22;18882;50.952;4.366;2022-09-09T09:24:53;17.60;99.90
32428;DHT22;18882;50.952;4.366;2022-09-09T09:27:36;17.50;99.90
32428;DHT22;18882;50.952;4.366;2022-09-09T09:30:14;17.50;99.90
32428;DHT22;18882;50.952;4.366;2022-09-09T09:32:43;17.60;99.90
32428;DHT22;18882;50.952;4.366;2022-09-09T09:35:12;17.60;99.90
32428;DHT22;18882;50.952;4.366;2022-09-09T09:37:40;17.60;99.90
32428;DHT22;18882;50.952;4.366;2022-09-09T09:40:12;17.60;99.90
32428;DHT22;18882;50.952;4.366;2022-09-09T09:43:15;17.60;99.90
32428;DHT22;18882;50.952;4.366;2022-09-09T09:45:44;17.60;99.90
32428;DHT22;18882;50.952;4.366;2022-09-09T09:48:15;17.50;99.90
32428;DHT22;18882;50.952;4.366;2022-09-09T09:53:30;17.50;99.90
32428;DHT22;18882;50.952;4.366;2022-09-09T09:56:02;17.40;99.90
32428;DHT22;18882;50.952;4.366;2022-09-09T09:58:35;17.50;99.90
32428;DHT22;18882;50.952;4.366;2022-09-09T10:01:02;17.60;99.90
32428;DHT22;18882;50.952;4.366;2022-09-09T10:03:31;17.70;99.90
32428;DHT22;18882;50.952;4.366;2022-09-09T10:06:03;17.70;99.90
32428;DHT22;18882;50.952;4.366;2022-09-09T10:08:29;17.80;99.90
32428;DHT22;18882;50.952;4.366;2022-09-09T10:19:30;17.80;99.90
32428;DHT22;18882;50.952;4.366;2022-09-09T10:27:20;17.90;99.90
32428;DHT22;18882;50.952;4.366;2022-09-09T10:32:24;18.20;99.90
32428;DHT22;18882;50.952;4.366;2022-09-09T10:40:35;18.70;99.90
32428;DHT22;18882;50.952;4.366;2022-09-09T10:46:25;18.90;99.90
32428;DHT22;18882;50.952;4.366;2022-09-09T10:52:10;19.20;99.90
32428;DHT22;18882;50.952;4.366;2022-09-09T10:57:36;19.20;99.90
32428;DHT22;18882;50.952;4.366;2022-09-09T11:02:58;19.00;99.90
32428;DHT22;18882;50.952;4.366;2022-09-09T11:08:19;19.00;99.90
32428;DHT22;18882;50.952;4.366;2022-09-09T11:10:53;19.10;99.90
32428;DHT22;18882;50.952;4.366;2022-09-09T11:19:13;19.50;99.90
32428;DHT22;18882;50.952;4.366;2022-09-09T11:21:46;19.50;99.90
32428;DHT22;18882;50.952;4.366;2022-09-09T11:27:31;19.70;99.90
32428;DHT22;18882;50.952;4.366;2022-09-09T11:30:22;19.70;99.90
32428;DHT22;18882;50.952;4.366;2022-09-09T11:33:15;19.80;99.90
32428;DHT22;18882;50.952;4.366;2022-09-09T11:36:16;19.70;99.90
32428;DHT22;18882;50.952;4.366;2022-09-09T11:44:41;19.70;99.90
32428;DHT22;18882;50.952;4.366;2022-09-09T11:47:30;19.60;99.90
32428;DHT22;18882;50.952;4.366;2022-09-09T11:50:10;19.40;99.90
32428;DHT22;18882;50.952;4.366;2022-09-09T11:52:45;19.20;99.90
32428;DHT22;18882;50.952;4.366;2022-09-09T11:55:59;19.20;99.90
32428;DHT22;18882;50.952;4.366;2022-09-09T11:58:43;19.20;99.90
32428;DHT22;18882;50.952;4.366;2022-09-09T12:04:35;19.30;99.90
32428;DHT22;18882;50.952;4.366;2022-09-09T12:07:28;19.40;99.90
32428;DHT22;18882;50.952;4.366;2022-09-09T12:10:20;19.50;99.90
32428;DHT22;18882;50.952;4.366;2022-09-09T12:13:16;19.50;99.90
32428;DHT22;18882;50.952;4.366;2022-09-09T12:16:35;19.60;99.90
32428;DHT22;18882;50.952;4.366;2022-09-09T12:19:21;19.70;99.90
32428;DHT22;18882;50.952;4.366;2022-09-09T12:28:14;19.80;99.90
32428;DHT22;18882;50.952;4.366;2022-09-09T12:34:02;19.90;99.90
32428;DHT22;18882;50.952;4.366;2022-09-09T12:36:32;19.80;99.90
32428;DHT22;18882;50.952;4.366;2022-09-09T12:39:34;19.90;99.90
32428;DHT22;18882;50.952;4.366;2022-09-09T12:42:30;19.80;99.90
32428;DHT22;18882;50.952;4.366;2022-09-09T12:45:01;19.90;99.90
32428;DHT22;18882;50.952;4.366;2022-09-09T12:47:50;20.00;99.90
32428;DHT22;18882;50.952;4.366;2022-09-09T12:50:32;20.10;99.90
32428;DHT22;18882;50.952;4.366;2022-09-09T12:53:17;20.10;99.90
32428;DHT22;18882;50.952;4.366;2022-09-09T12:56:28;20.10;99.90
32428;DHT22;18882;50.952;4.366;2022-09-09T12:58:58;20.20;99.90
32428;DHT22;18882;50.952;4.366;2022-09-09T13:02:25;20.20;99.90
32428;DHT22;18882;50.952;4.366;2022-09-09T13:05:16;20.20;99.90
32428;DHT22;18882;50.952;4.366;2022-09-09T13:07:49;20.40;99.90
32428;DHT22;18882;50.952;4.366;2022-09-09T13:10:47;20.40;99.90
32428;DHT22;18882;50.952;4.366;2022-09-09T13:13:52;20.50;99.90
32428;DHT22;18882;50.952;4.366;2022-09-09T13:16:32;20.40;99.90
32428;DHT22;18882;50.952;4.366;2022-09-09T13:19:38;20.50;99.90
32428;DHT22;18882;50.952;4.366;2022-09-09T13:22:47;20.50;99.90
32428;DHT22;18882;50.952;4.366;2022-09-09T13:25:26;20.50;99.90
32428;DHT22;18882;50.952;4.366;2022-09-09T13:28:26;20.40;99.90
32428;DHT22;18882;50.952;4.366;2022-09-09T13:31:22;20.30;99.90
32428;DHT22;18882;50.952;4.366;2022-09-09T13:34:29;20.30;99.90
32428;DHT22;18882;50.952;4.366;2022-09-09T13:37:36;20.20;99.90
32428;DHT22;18882;50.952;4.366;2022-09-09T13:40:31;20.20;99.90
32428;DHT22;18882;50.952;4.366;2022-09-09T13:43:21;20.20;99.90
32428;DHT22;18882;50.952;4.366;2022-09-09T13:49:20;20.60;99.90
32428;DHT22;18882;50.952;4.366;2022-09-09T13:52:11;20.90;99.90
32428;DHT22;18882;50.952;4.366;2022-09-09T13:54:46;21.10;99.90
32428;DHT22;18882;50.952;4.366;2022-09-09T13:57:31;21.20;99.90
32428;DHT22;18882;50.952;4.366;2022-09-09T13:59:57;21.10;99.90
32428;DHT22;18882;50.952;4.366;2022-09-09T14:03:02;21.00;99.90
32428;DHT22;18882;50.952;4.366;2022-09-09T14:06:11;21.00;99.90
32428;DHT22;18882;50.952;4.366;2022-09-09T14:08:45;20.90;99.90
32428;DHT22;18882;50.952;4.366;2022-09-09T14:11:26;20.70;99.90
32428;DHT22;18882;50.952;4.366;2022-09-09T14:13:58;20.70;99.90
32428;DHT22;18882;50.952;4.366;2022-09-09T14:16:33;21.00;99.90
32428;DHT22;18882;50.952;4.366;2022-09-09T14:19:19;21.00;99.90
32428;DHT22;18882;50.952;4.366;2022-09-09T14:21:49;21.00;99.90
32428;DHT22;18882;50.952;4.366;2022-09-09T14:24:16;21.00;99.90
32428;DHT22;18882;50.952;4.366;2022-09-09T14:27:03;21.00;99.90
32428;DHT22;18882;50.952;4.366;2022-09-09T14:29:44;20.90;99.90
32428;DHT22;18882;50.952;4.366;2022-09-09T14:32:13;21.00;99.90
32428;DHT22;18882;50.952;4.366;2022-09-09T14:35:14;21.00;99.90
32428;DHT22;18882;50.952;4.366;2022-09-09T14:37:41;21.00;99.90
32428;DHT22;18882;50.952;4.366;2022-09-09T14:40:10;21.10;99.90
32428;DHT22;18882;50.952;4.366;2022-09-09T14:43:00;21.20;99.90
32428;DHT22;18882;50.952;4.366;2022-09-09T14:46:17;21.40;99.90
32428;DHT22;18882;50.952;4.366;2022-09-09T14:49:15;21.30;99.90
32428;DHT22;18882;50.952;4.366;2022-09-09T14:52:05;21.30;99.90
32428;DHT22;18882;50.952;4.366;2022-09-09T14:54:33;21.40;99.90
32428;DHT22;18882;50.952;4.366;2022-09-09T14:57:08;21.30;99.90
32428;DHT22;18882;50.952;4.366;2022-09-09T14:59:34;21.30;99.90
32428;DHT22;18882;50.952;4.366;2022-09-09T15:02:00;21.20;99.90
32428;DHT22;18882;50.952;4.366;2022-09-09T15:04:51;21.30;99.90
32428;DHT22;18882;50.952;4.366;2022-09-09T15:07:38;21.20;99.90
32428;DHT22;18882;50.952;4.366;2022-09-09T15:10:14;21.30;99.90
32428;DHT22;18882;50.952;4.366;2022-09-09T15:13:01;21.40;99.90
32428;DHT22;18882;50.952;4.366;2022-09-09T15:16:13;21.30;99.90
32428;DHT22;18882;50.952;4.366;2022-09-09T15:19:21;21.30;99.90
32428;DHT22;18882;50.952;4.366;2022-09-09T15:21:47;21.30;99.90
32428;DHT22;18882;50.952;4.366;2022-09-09T15:24:14;21.10;99.90
32428;DHT22;18882;50.952;4.366;2022-09-09T15:27:00;21.10;99.90
32428;DHT22;18882;50.952;4.366;2022-09-09T15:29:29;21.20;99.90
32428;DHT22;18882;50.952;4.366;2022-09-09T15:31:55;21.10;99.90
32428;DHT22;18882;50.952;4.366;2022-09-09T15:34:21;21.10;99.90
32428;DHT22;18882;50.952;4.366;2022-09-09T15:36:51;21.10;99.90
32428;DHT22;18882;50.952;4.366;2022-09-09T15:39:18;21.00;99.90
32428;DHT22;18882;50.952;4.366;2022-09-09T15:41:49;21.00;99.90
32428;DHT22;18882;50.952;4.366;2022-09-09T15:44:18;21.00;99.90
32428;DHT22;18882;50.952;4.366;2022-09-09T15:46:53;20.80;99.90
32428;DHT22;18882;50.952;4.366;2022-09-09T15:49:29;20.80;99.90
32428;DHT22;18882;50.952;4.366;2022-09-09T15:52:05;20.70;99.90
32428;DHT22;18882;50.952;4.366;2022-09-09T15:54:40;20.60;99.90
32428;DHT22;18882;50.952;4.366;2022-09-09T15:57:13;20.60;99.90
32428;DHT22;18882;50.952;4.366;2022-09-09T16:00:21;20.60;99.90
32428;DHT22;18882;50.952;4.366;2022-09-09T16:02:52;20.50;99.90
32428;DHT22;18882;50.952;4.366;2022-09-09T16:05:53;20.60;99.90
32428;DHT22;18882;50.952;4.366;2022-09-09T16:08:50;20.60;99.90
32428;DHT22;18882;50.952;4.366;2022-09-09T16:11:26;20.60;99.90
32428;DHT22;18882;50.952;4.366;2022-09-09T16:13:54;20.70;99.90
32428;DHT22;18882;50.952;4.366;2022-09-09T16:16:24;20.70;99.90
32428;DHT22;18882;50.952;4.366;2022-09-09T16:18:54;20.70;99.90
32428;DHT22;18882;50.952;4.366;2022-09-09T16:21:31;20.80;99.90
32428;DHT22;18882;50.952;4.366;2022-09-09T16:23:58;20.80;99.90
32428;DHT22;18882;50.952;4.366;2022-09-09T16:26:50;20.80;99.90
32428;DHT22;18882;50.952;4.366;2022-09-09T16:29:26;20.70;99.90
32428;DHT22;18882;50.952;4.366;2022-09-09T16:31:53;20.60;99.90
32428;DHT22;18882;50.952;4.366;2022-09-09T16:34:20;20.40;99.90
32428;DHT22;18882;50.952;4.366;2022-09-09T16:36:55;20.30;99.90
32428;DHT22;18882;50.952;4.366;2022-09-09T18:14:39;18.70;99.90
32428;DHT22;18882;50.952;4.366;2022-09-09T18:17:17;18.70;99.90
32428;DHT22;18882;50.952;4.366;2022-09-09T18:20:13;18.70;99.90
32428;DHT22;18882;50.952;4.366;2022-09-09T18:22:49;18.60;99.90
32428;DHT22;18882;50.952;4.366;2022-09-09T18:25:17;18.50;99.90
32428;DHT22;18882;50.952;4.366;2022-09-09T18:28:26;18.40;99.90
32428;DHT22;18882;50.952;4.366;2022-09-09T18:31:22;18.30;99.90
32428;DHT22;18882;50.952;4.366;2022-09-09T18:33:58;18.30;99.90
32428;DHT22;18882;50.952;4.366;2022-09-09T18:36:43;18.30;99.90
32428;DHT22;18882;50.952;4.366;2022-09-09T18:39:15;18.30;99.90
32428;DHT22;18882;50.952;4.366;2022-09-09T18:42:19;18.30;99.90
32428;DHT22;18882;50.952;4.366;2022-09-09T18:44:49;18.20;99.90
32428;DHT22;18882;50.952;4.366;2022-09-09T18:47:17;18.30;99.90
32428;DHT22;18882;50.952;4.366;2022-09-09T18:49:43;18.20;99.90
32428;DHT22;18882;50.952;4.366;2022-09-09T18:52:13;18.20;99.90
32428;DHT22;18882;50.952;4.366;2022-09-09T18:54:39;18.10;99.90
32428;DHT22;18882;50.952;4.366;2022-09-09T18:57:16;18.10;99.90
32428;DHT22;18882;50.952;4.366;2022-09-09T18:59:53;18.20;99.90
32428;DHT22;18882;50.952;4.366;2022-09-09T19:02:48;18.20;99.90
32428;DHT22;18882;50.952;4.366;2022-09-09T19:06:17;18.00;99.90
32428;DHT22;18882;50.952;4.366;2022-09-09T19:09:05;17.90;99.90
32428;DHT22;18882;50.952;4.366;2022-09-09T19:11:48;17.90;99.90
32428;DHT22;18882;50.952;4.366;2022-09-09T19:14:17;17.80;99.90
32428;DHT22;18882;50.952;4.366;2022-09-09T19:16:45;17.90;99.90
32428;DHT22;18882;50.952;4.366;2022-09-09T19:19:35;17.80;99.90
32428;DHT22;18882;50.952;4.366;2022-09-09T19:22:23;17.80;99.90
32428;DHT22;18882;50.952;4.366;2022-09-09T19:24:58;17.70;99.90
32428;DHT22;18882;50.952;4.366;2022-09-09T19:27:46;17.60;99.90
32428;DHT22;18882;50.952;4.366;2022-09-09T19:30:47;17.60;99.90
32428;DHT22;18882;50.952;4.366;2022-09-09T19:33:18;17.70;99.90
32428;DHT22;18882;50.952;4.366;2022-09-09T19:36:09;17.60;99.90
32428;DHT22;18882;50.952;4.366;2022-09-09T19:39:04;17.60;99.90
32428;DHT22;18882;50.952;4.366;2022-09-09T19:42:12;17.60;99.90
32428;DHT22;18882;50.952;4.366;2022-09-09T19:44:59;17.50;99.90
32428;DHT22;18882;50.952;4.366;2022-09-09T19:47:45;17.50;99.90
32428;DHT22;18882;50.952;4.366;2022-09-09T19:50:16;17.50;99.90
32428;DHT22;18882;50.952;4.366;2022-09-09T19:52:42;17.50;99.90
32428;DHT22;18882;50.952;4.366;2022-09-09T19:55:38;17.50;99.90
32428;DHT22;18882;50.952;4.366;2022-09-09T19:58:13;17.50;99.90
32428;DHT22;18882;50.952;4.366;2022-09-09T20:00:45;17.40;99.90
32428;DHT22;18882;50.952;4.366;2022-09-09T20:03:52;17.30;99.90
32428;DHT22;18882;50.952;4.366;2022-09-09T20:06:33;17.40;99.90
32428;DHT22;18882;50.952;4.366;2022-09-09T20:09:20;17.50;99.90
32428;DHT22;18882;50.952;4.366;2022-09-09T20:11:49;17.40;99.90